sensor_id;sensor_type;location;lat;lon;timestamp;P1;durP1;ratioP1;P2;durP2;ratioP2
18568;SDS011;14780;48.316;-1.050;2023-06-22T00:01:16;6.13;;;3.53;;
18568;SDS011;14780;48.316;-1.050;2023-06-22T00:04:02;5.30;;;3.50;;
18568;SDS011;14780;48.316;-1.050;2023-06-22T00:06:47;6.38;;;3.60;;
18568;SDS011;14780;48.316;-1.050;2023-06-22T00:09:31;5.20;;;3.60;;
18568;SDS011;14780;48.316;-1.050;2023-06-22T00:12:16;5.55;;;3.45;;
18568;SDS011;14780;48.316;-1.050;2023-06-22T00:15:01;5.93;;;3.67;;
18568;SDS011;14780;48.316;-1.050;2023-06-22T00:17:46;5.75;;;3.50;;
18568;SDS011;14780;48.316;-1.050;2023-06-22T00:20:31;5.70;;;3.60;;
18568;SDS011;14780;48.316;-1.050;2023-06-22T00:23:16;5.00;;;3.42;;
18568;SDS011;14780;48.316;-1.050;2023-06-22T00:26:02;5.85;;;3.90;;
18568;SDS011;14780;48.316;-1.050;2023-06-22T00:28:47;4.28;;;3.33;;
18568;SDS011;14780;48.316;-1.050;2023-06-22T00:31:31;5.55;;;3.47;;
18568;SDS011;14780;48.316;-1.050;2023-06-22T00:34:16;5.17;;;3.40;;
18568;SDS011;14780;48.316;-1.050;2023-06-22T00:37:01;5.25;;;3.70;;
18568;SDS011;14780;48.316;-1.050;2023-06-22T00:39:46;5.72;;;3.60;;
18568;SDS011;14780;48.316;-1.050;2023-06-22T00:42:30;5.35;;;3.47;;
18568;SDS011;14780;48.316;-1.050;2023-06-22T00:45:15;5.33;;;3.77;;
18568;SDS011;14780;48.316;-1.050;2023-06-22T00:48:00;5.35;;;3.90;;
18568;SDS011;14780;48.316;-1.050;2023-06-22T00:50:44;5.72;;;3.92;;
18568;SDS011;14780;48.316;-1.050;2023-06-22T00:53:34;5.15;;;3.50;;
18568;SDS011;14780;48.316;-1.050;2023-06-22T00:56:20;5.53;;;3.70;;
18568;SDS011;14780;48.316;-1.050;2023-06-22T00:59:08;5.75;;;3.83;;
18568;SDS011;14780;48.316;-1.050;2023-06-22T01:01:56;6.80;;;3.63;;
18568;SDS011;14780;48.316;-1.050;2023-06-22T01:04:41;5.63;;;4.03;;
18568;SDS011;14780;48.316;-1.050;2023-06-22T01:10:24;5.60;;;3.47;;
18568;SDS011;14780;48.316;-1.050;2023-06-22T01:13:41;5.50;;;3.65;;
18568;SDS011;14780;48.316;-1.050;2023-06-22T01:16:37;6.93;;;3.90;;
18568;SDS011;14780;48.316;-1.050;2023-06-22T01:22:28;4.55;;;3.58;;
18568;SDS011;14780;48.316;-1.050;2023-06-22T01:25:20;7.07;;;3.85;;
18568;SDS011;14780;48.316;-1.050;2023-06-22T01:28:55;6.53;;;4.07;;
18568;SDS011;14780;48.316;-1.050;2023-06-22T01:31:26;6.10;;;3.95;;
18568;SDS011;14780;48.316;-1.050;2023-06-22T01:34:13;5.22;;;3.78;;
18568;SDS011;14780;48.316;-1.050;2023-06-22T01:37:00;5.82;;;4.00;;
18568;SDS011;14780;48.316;-1.050;2023-06-22T01:39:45;7.27;;;3.77;;
18568;SDS011;14780;48.316;-1.050;2023-06-22T01:42:31;6.63;;;4.05;;
18568;SDS011;14780;48.316;-1.050;2023-06-22T01:45:17;5.03;;;3.83;;
18568;SDS011;14780;48.316;-1.050;2023-06-22T01:48:03;5.95;;;3.80;;
18568;SDS011;14780;48.316;-1.050;2023-06-22T01:50:48;5.75;;;3.75;;
18568;SDS011;14780;48.316;-1.050;2023-06-22T01:53:33;6.50;;;4.03;;
18568;SDS011;14780;48.316;-1.050;2023-06-22T01:56:17;5.63;;;3.70;;
18568;SDS011;14780;48.316;-1.050;2023-06-22T01:59:17;5.88;;;3.70;;
18568;SDS011;14780;48.316;-1.050;2023-06-22T02:02:32;6.00;;;3.90;;
18568;SDS011;14780;48.316;-1.050;2023-06-22T02:05:28;5.68;;;3.63;;
18568;SDS011;14780;48.316;-1.050;2023-06-22T02:08:20;5.05;;;3.80;;
18568;SDS011;14780;48.316;-1.050;2023-06-22T02:11:12;4.85;;;3.65;;
18568;SDS011;14780;48.316;-1.050;2023-06-22T02:13:58;6.18;;;4.35;;
18568;SDS011;14780;48.316;-1.050;2023-06-22T02:16:43;7.82;;;3.97;;
18568;SDS011;14780;48.316;-1.050;2023-06-22T02:19:28;5.05;;;3.55;;
18568;SDS011;14780;48.316;-1.050;2023-06-22T02:22:17;5.47;;;3.50;;
18568;SDS011;14780;48.316;-1.050;2023-06-22T02:25:02;6.70;;;4.07;;
18568;SDS011;14780;48.316;-1.050;2023-06-22T02:27:47;5.82;;;3.95;;
18568;SDS011;14780;48.316;-1.050;2023-06-22T02:30:32;6.32;;;3.90;;
18568;SDS011;14780;48.316;-1.050;2023-06-22T02:33:16;5.72;;;3.78;;
18568;SDS011;14780;48.316;-1.050;2023-06-22T02:36:01;5.70;;;3.78;;
18568;SDS011;14780;48.316;-1.050;2023-06-22T02:38:48;5.82;;;3.60;;
18568;SDS011;14780;48.316;-1.050;2023-06-22T02:41:34;7.28;;;4.10;;
18568;SDS011;14780;48.316;-1.050;2023-06-22T02:44:19;5.85;;;3.60;;
18568;SDS011;14780;48.316;-1.050;2023-06-22T02:47:04;7.50;;;3.60;;
18568;SDS011;14780;48.316;-1.050;2023-06-22T02:49:49;7.03;;;3.30;;
18568;SDS011;14780;48.316;-1.050;2023-06-22T02:52:33;6.47;;;4.03;;
18568;SDS011;14780;48.316;-1.050;2023-06-22T02:55:18;5.73;;;3.80;;
18568;SDS011;14780;48.316;-1.050;2023-06-22T02:58:03;6.20;;;3.60;;
18568;SDS011;14780;48.316;-1.050;2023-06-22T03:00:48;5.55;;;3.75;;
18568;SDS011;14780;48.316;-1.050;2023-06-22T03:03:36;4.40;;;3.33;;
18568;SDS011;14780;48.316;-1.050;2023-06-22T03:06:21;5.70;;;3.67;;
18568;SDS011;14780;48.316;-1.050;2023-06-22T03:09:07;5.68;;;3.80;;
18568;SDS011;14780;48.316;-1.050;2023-06-22T03:11:51;5.17;;;3.47;;
18568;SDS011;14780;48.316;-1.050;2023-06-22T03:14:36;5.43;;;3.30;;
18568;SDS011;14780;48.316;-1.050;2023-06-22T03:17:22;4.32;;;3.30;;
18568;SDS011;14780;48.316;-1.050;2023-06-22T03:20:07;6.07;;;3.45;;
18568;SDS011;14780;48.316;-1.050;2023-06-22T03:22:56;5.43;;;3.42;;
18568;SDS011;14780;48.316;-1.050;2023-06-22T03:25:41;6.88;;;3.70;;
18568;SDS011;14780;48.316;-1.050;2023-06-22T03:28:28;4.63;;;3.50;;
18568;SDS011;14780;48.316;-1.050;2023-06-22T03:31:13;5.10;;;3.47;;
18568;SDS011;14780;48.316;-1.050;2023-06-22T03:33:57;5.22;;;3.30;;
18568;SDS011;14780;48.316;-1.050;2023-06-22T03:36:43;5.07;;;3.50;;
18568;SDS011;14780;48.316;-1.050;2023-06-22T03:39:29;5.63;;;3.40;;
18568;SDS011;14780;48.316;-1.050;2023-06-22T03:42:14;5.07;;;3.70;;
18568;SDS011;14780;48.316;-1.050;2023-06-22T03:44:58;5.60;;;3.30;;
18568;SDS011;14780;48.316;-1.050;2023-06-22T03:47:44;5.72;;;3.60;;
18568;SDS011;14780;48.316;-1.050;2023-06-22T03:50:29;6.80;;;3.72;;
18568;SDS011;14780;48.316;-1.050;2023-06-22T03:53:14;5.47;;;3.40;;
18568;SDS011;14780;48.316;-1.050;2023-06-22T03:56:00;5.03;;;3.60;;
18568;SDS011;14780;48.316;-1.050;2023-06-22T03:58:45;5.05;;;3.53;;
18568;SDS011;14780;48.316;-1.050;2023-06-22T04:01:29;5.63;;;3.47;;
18568;SDS011;14780;48.316;-1.050;2023-06-22T04:04:14;5.82;;;3.50;;
18568;SDS011;14780;48.316;-1.050;2023-06-22T04:06:58;5.43;;;3.40;;
18568;SDS011;14780;48.316;-1.050;2023-06-22T04:09:43;4.73;;;3.37;;
18568;SDS011;14780;48.316;-1.050;2023-06-22T04:12:28;4.35;;;3.28;;
18568;SDS011;14780;48.316;-1.050;2023-06-22T04:15:12;5.30;;;3.17;;
18568;SDS011;14780;48.316;-1.050;2023-06-22T04:17:57;5.53;;;3.35;;
18568;SDS011;14780;48.316;-1.050;2023-06-22T04:20:41;4.43;;;3.30;;
18568;SDS011;14780;48.316;-1.050;2023-06-22T04:23:28;4.90;;;3.37;;
18568;SDS011;14780;48.316;-1.050;2023-06-22T04:26:13;5.32;;;3.75;;
18568;SDS011;14780;48.316;-1.050;2023-06-22T04:28:57;4.70;;;3.50;;
18568;SDS011;14780;48.316;-1.050;2023-06-22T04:31:42;5.68;;;3.75;;
18568;SDS011;14780;48.316;-1.050;2023-06-22T04:34:27;5.90;;;3.60;;
18568;SDS011;14780;48.316;-1.050;2023-06-22T04:37:12;5.20;;;3.83;;
18568;SDS011;14780;48.316;-1.050;2023-06-22T04:40:00;4.60;;;3.53;;
18568;SDS011;14780;48.316;-1.050;2023-06-22T04:42:44;5.40;;;3.95;;
18568;SDS011;14780;48.316;-1.050;2023-06-22T04:45:36;5.70;;;3.60;;
18568;SDS011;14780;48.316;-1.050;2023-06-22T04:48:21;5.27;;;3.23;;
18568;SDS011;14780;48.316;-1.050;2023-06-22T04:51:06;5.70;;;3.50;;
18568;SDS011;14780;48.316;-1.050;2023-06-22T04:53:51;5.00;;;3.60;;
18568;SDS011;14780;48.316;-1.050;2023-06-22T04:56:44;6.20;;;3.30;;
18568;SDS011;14780;48.316;-1.050;2023-06-22T04:59:30;4.95;;;3.47;;
18568;SDS011;14780;48.316;-1.050;2023-06-22T05:02:15;5.55;;;3.60;;
18568;SDS011;14780;48.316;-1.050;2023-06-22T05:05:00;5.60;;;3.67;;
18568;SDS011;14780;48.316;-1.050;2023-06-22T05:07:50;5.07;;;3.83;;
18568;SDS011;14780;48.316;-1.050;2023-06-22T05:10:43;5.57;;;3.70;;
18568;SDS011;14780;48.316;-1.050;2023-06-22T05:13:28;7.63;;;3.90;;
18568;SDS011;14780;48.316;-1.050;2023-06-22T05:16:12;5.18;;;3.58;;
18568;SDS011;14780;48.316;-1.050;2023-06-22T05:18:57;4.90;;;3.50;;
18568;SDS011;14780;48.316;-1.050;2023-06-22T05:21:41;5.80;;;3.63;;
18568;SDS011;14780;48.316;-1.050;2023-06-22T05:24:26;4.70;;;3.38;;
18568;SDS011;14780;48.316;-1.050;2023-06-22T05:27:11;4.93;;;3.47;;
18568;SDS011;14780;48.316;-1.050;2023-06-22T05:29:55;5.03;;;3.63;;
18568;SDS011;14780;48.316;-1.050;2023-06-22T05:32:40;5.82;;;3.53;;
18568;SDS011;14780;48.316;-1.050;2023-06-22T05:35:25;4.93;;;3.55;;
18568;SDS011;14780;48.316;-1.050;2023-06-22T05:38:09;5.53;;;3.28;;
18568;SDS011;14780;48.316;-1.050;2023-06-22T05:40:54;5.55;;;3.70;;
18568;SDS011;14780;48.316;-1.050;2023-06-22T05:43:39;7.00;;;3.53;;
18568;SDS011;14780;48.316;-1.050;2023-06-22T05:46:24;6.90;;;3.83;;
18568;SDS011;14780;48.316;-1.050;2023-06-22T05:49:09;5.93;;;3.90;;
18568;SDS011;14780;48.316;-1.050;2023-06-22T05:51:55;6.03;;;3.60;;
18568;SDS011;14780;48.316;-1.050;2023-06-22T05:54:40;10.82;;;3.88;;
18568;SDS011;14780;48.316;-1.050;2023-06-22T05:57:26;6.07;;;3.67;;
18568;SDS011;14780;48.316;-1.050;2023-06-22T06:00:11;7.55;;;4.38;;
18568;SDS011;14780;48.316;-1.050;2023-06-22T06:02:57;7.05;;;4.80;;
18568;SDS011;14780;48.316;-1.050;2023-06-22T06:05:46;8.38;;;4.93;;
18568;SDS011;14780;48.316;-1.050;2023-06-22T06:08:31;8.07;;;4.55;;
18568;SDS011;14780;48.316;-1.050;2023-06-22T06:11:17;8.15;;;4.50;;
18568;SDS011;14780;48.316;-1.050;2023-06-22T06:14:01;7.15;;;4.18;;
18568;SDS011;14780;48.316;-1.050;2023-06-22T06:16:47;8.38;;;4.10;;
18568;SDS011;14780;48.316;-1.050;2023-06-22T06:19:33;7.03;;;3.97;;
18568;SDS011;14780;48.316;-1.050;2023-06-22T06:22:18;6.65;;;4.10;;
18568;SDS011;14780;48.316;-1.050;2023-06-22T06:25:04;7.18;;;3.97;;
18568;SDS011;14780;48.316;-1.050;2023-06-22T06:27:50;7.07;;;4.22;;
18568;SDS011;14780;48.316;-1.050;2023-06-22T06:30:35;9.95;;;4.00;;
18568;SDS011;14780;48.316;-1.050;2023-06-22T06:33:20;6.68;;;3.63;;
18568;SDS011;14780;48.316;-1.050;2023-06-22T06:36:06;5.53;;;3.70;;
18568;SDS011;14780;48.316;-1.050;2023-06-22T06:38:52;7.63;;;4.10;;
18568;SDS011;14780;48.316;-1.050;2023-06-22T06:41:36;5.78;;;3.95;;
18568;SDS011;14780;48.316;-1.050;2023-06-22T06:44:21;5.95;;;3.75;;
18568;SDS011;14780;48.316;-1.050;2023-06-22T06:47:06;5.75;;;3.58;;
18568;SDS011;14780;48.316;-1.050;2023-06-22T06:49:51;8.65;;;3.90;;
18568;SDS011;14780;48.316;-1.050;2023-06-22T06:52:35;7.50;;;3.83;;
18568;SDS011;14780;48.316;-1.050;2023-06-22T06:55:20;9.60;;;3.70;;
18568;SDS011;14780;48.316;-1.050;2023-06-22T06:58:08;7.80;;;3.90;;
18568;SDS011;14780;48.316;-1.050;2023-06-22T07:00:56;8.18;;;3.97;;
18568;SDS011;14780;48.316;-1.050;2023-06-22T07:03:41;8.30;;;3.85;;
18568;SDS011;14780;48.316;-1.050;2023-06-22T07:06:25;7.90;;;3.90;;
18568;SDS011;14780;48.316;-1.050;2023-06-22T07:09:12;6.82;;;3.75;;
18568;SDS011;14780;48.316;-1.050;2023-06-22T07:11:57;8.40;;;3.80;;
18568;SDS011;14780;48.316;-1.050;2023-06-22T07:14:42;6.22;;;3.72;;
18568;SDS011;14780;48.316;-1.050;2023-06-22T07:17:27;5.55;;;3.75;;
18568;SDS011;14780;48.316;-1.050;2023-06-22T07:20:11;6.93;;;3.90;;
18568;SDS011;14780;48.316;-1.050;2023-06-22T07:22:56;5.50;;;3.63;;
18568;SDS011;14780;48.316;-1.050;2023-06-22T07:25:41;7.70;;;3.67;;
18568;SDS011;14780;48.316;-1.050;2023-06-22T07:28:26;5.57;;;3.50;;
18568;SDS011;14780;48.316;-1.050;2023-06-22T07:31:11;5.90;;;3.60;;
18568;SDS011;14780;48.316;-1.050;2023-06-22T07:33:56;4.75;;;3.30;;
18568;SDS011;14780;48.316;-1.050;2023-06-22T07:36:40;7.50;;;3.65;;
18568;SDS011;14780;48.316;-1.050;2023-06-22T07:39:25;5.97;;;3.27;;
18568;SDS011;14780;48.316;-1.050;2023-06-22T07:42:10;5.53;;;3.70;;
18568;SDS011;14780;48.316;-1.050;2023-06-22T07:44:55;6.50;;;3.45;;
18568;SDS011;14780;48.316;-1.050;2023-06-22T07:47:39;5.88;;;3.30;;
18568;SDS011;14780;48.316;-1.050;2023-06-22T07:50:24;5.50;;;3.50;;
18568;SDS011;14780;48.316;-1.050;2023-06-22T07:53:08;6.72;;;3.90;;
18568;SDS011;14780;48.316;-1.050;2023-06-22T07:55:53;6.97;;;3.50;;
18568;SDS011;14780;48.316;-1.050;2023-06-22T07:58:37;5.95;;;3.50;;
18568;SDS011;14780;48.316;-1.050;2023-06-22T08:01:22;6.88;;;4.03;;
18568;SDS011;14780;48.316;-1.050;2023-06-22T08:04:07;7.18;;;3.80;;
18568;SDS011;14780;48.316;-1.050;2023-06-22T08:06:52;5.70;;;3.72;;
18568;SDS011;14780;48.316;-1.050;2023-06-22T08:09:37;6.27;;;3.53;;
18568;SDS011;14780;48.316;-1.050;2023-06-22T08:12:22;5.32;;;3.50;;
18568;SDS011;14780;48.316;-1.050;2023-06-22T08:15:07;6.00;;;3.70;;
18568;SDS011;14780;48.316;-1.050;2023-06-22T08:17:53;5.90;;;3.75;;
18568;SDS011;14780;48.316;-1.050;2023-06-22T08:20:38;5.50;;;3.60;;
18568;SDS011;14780;48.316;-1.050;2023-06-22T08:23:22;5.68;;;3.47;;
18568;SDS011;14780;48.316;-1.050;2023-06-22T08:26:07;5.18;;;3.67;;
18568;SDS011;14780;48.316;-1.050;2023-06-22T08:28:51;5.97;;;3.70;;
18568;SDS011;14780;48.316;-1.050;2023-06-22T08:31:36;5.35;;;3.40;;
18568;SDS011;14780;48.316;-1.050;2023-06-22T08:34:20;8.57;;;3.60;;
18568;SDS011;14780;48.316;-1.050;2023-06-22T08:37:09;6.28;;;3.75;;
18568;SDS011;14780;48.316;-1.050;2023-06-22T08:39:54;5.40;;;3.50;;
18568;SDS011;14780;48.316;-1.050;2023-06-22T08:42:40;6.95;;;4.00;;
18568;SDS011;14780;48.316;-1.050;2023-06-22T08:45:25;5.68;;;3.53;;
18568;SDS011;14780;48.316;-1.050;2023-06-22T08:48:09;8.48;;;3.95;;
18568;SDS011;14780;48.316;-1.050;2023-06-22T08:50:54;7.00;;;4.00;;
18568;SDS011;14780;48.316;-1.050;2023-06-22T08:53:38;5.07;;;3.40;;
18568;SDS011;14780;48.316;-1.050;2023-06-22T08:56:23;5.78;;;3.60;;
18568;SDS011;14780;48.316;-1.050;2023-06-22T08:59:07;5.47;;;3.70;;
18568;SDS011;14780;48.316;-1.050;2023-06-22T09:01:52;4.90;;;3.17;;
18568;SDS011;14780;48.316;-1.050;2023-06-22T09:04:37;6.75;;;3.85;;
18568;SDS011;14780;48.316;-1.050;2023-06-22T09:07:22;6.38;;;3.67;;
18568;SDS011;14780;48.316;-1.050;2023-06-22T09:10:08;5.95;;;3.88;;
18568;SDS011;14780;48.316;-1.050;2023-06-22T09:12:53;6.28;;;3.88;;
18568;SDS011;14780;48.316;-1.050;2023-06-22T09:15:37;5.65;;;3.63;;
18568;SDS011;14780;48.316;-1.050;2023-06-22T09:18:22;5.78;;;3.30;;
18568;SDS011;14780;48.316;-1.050;2023-06-22T09:21:07;6.40;;;3.90;;
18568;SDS011;14780;48.316;-1.050;2023-06-22T09:23:52;5.15;;;3.63;;
18568;SDS011;14780;48.316;-1.050;2023-06-22T09:26:37;6.38;;;3.45;;
18568;SDS011;14780;48.316;-1.050;2023-06-22T09:29:21;5.87;;;3.43;;
18568;SDS011;14780;48.316;-1.050;2023-06-22T09:32:06;6.70;;;3.83;;
18568;SDS011;14780;48.316;-1.050;2023-06-22T09:34:51;5.93;;;3.92;;
18568;SDS011;14780;48.316;-1.050;2023-06-22T09:37:37;5.38;;;3.20;;
18568;SDS011;14780;48.316;-1.050;2023-06-22T09:40:22;6.22;;;3.70;;
18568;SDS011;14780;48.316;-1.050;2023-06-22T09:43:06;5.03;;;3.40;;
18568;SDS011;14780;48.316;-1.050;2023-06-22T09:45:51;5.30;;;3.63;;
18568;SDS011;14780;48.316;-1.050;2023-06-22T09:48:35;7.53;;;3.30;;
18568;SDS011;14780;48.316;-1.050;2023-06-22T09:51:20;5.03;;;3.50;;
18568;SDS011;14780;48.316;-1.050;2023-06-22T09:54:06;6.82;;;3.60;;
18568;SDS011;14780;48.316;-1.050;2023-06-22T09:56:51;5.57;;;3.60;;
18568;SDS011;14780;48.316;-1.050;2023-06-22T09:59:35;7.40;;;3.72;;
18568;SDS011;14780;48.316;-1.050;2023-06-22T10:02:21;5.90;;;3.80;;
18568;SDS011;14780;48.316;-1.050;2023-06-22T10:05:06;5.35;;;3.65;;
18568;SDS011;14780;48.316;-1.050;2023-06-22T10:07:51;6.75;;;4.00;;
18568;SDS011;14780;48.316;-1.050;2023-06-22T10:10:35;6.88;;;3.80;;
18568;SDS011;14780;48.316;-1.050;2023-06-22T10:13:22;6.28;;;4.03;;
18568;SDS011;14780;48.316;-1.050;2023-06-22T10:16:07;8.15;;;3.78;;
18568;SDS011;14780;48.316;-1.050;2023-06-22T10:18:52;6.77;;;3.70;;
18568;SDS011;14780;48.316;-1.050;2023-06-22T10:21:36;6.45;;;3.70;;
18568;SDS011;14780;48.316;-1.050;2023-06-22T10:24:21;7.88;;;3.90;;
18568;SDS011;14780;48.316;-1.050;2023-06-22T10:27:05;6.72;;;3.85;;
18568;SDS011;14780;48.316;-1.050;2023-06-22T10:29:50;4.78;;;3.55;;
18568;SDS011;14780;48.316;-1.050;2023-06-22T10:32:35;5.90;;;3.65;;
18568;SDS011;14780;48.316;-1.050;2023-06-22T10:35:21;5.53;;;3.90;;
18568;SDS011;14780;48.316;-1.050;2023-06-22T10:38:05;6.03;;;3.45;;
18568;SDS011;14780;48.316;-1.050;2023-06-22T10:40:51;5.50;;;3.53;;
18568;SDS011;14780;48.316;-1.050;2023-06-22T10:43:36;5.88;;;3.63;;
18568;SDS011;14780;48.316;-1.050;2023-06-22T10:46:21;5.78;;;3.83;;
18568;SDS011;14780;48.316;-1.050;2023-06-22T10:49:07;6.57;;;3.83;;
18568;SDS011;14780;48.316;-1.050;2023-06-22T10:51:52;6.90;;;3.50;;
18568;SDS011;14780;48.316;-1.050;2023-06-22T10:54:37;5.60;;;4.00;;
18568;SDS011;14780;48.316;-1.050;2023-06-22T10:57:22;5.78;;;3.70;;
18568;SDS011;14780;48.316;-1.050;2023-06-22T11:00:07;5.80;;;3.88;;
18568;SDS011;14780;48.316;-1.050;2023-06-22T11:02:52;7.53;;;3.97;;
18568;SDS011;14780;48.316;-1.050;2023-06-22T11:05:38;5.03;;;3.80;;
18568;SDS011;14780;48.316;-1.050;2023-06-22T11:08:22;5.72;;;3.65;;
18568;SDS011;14780;48.316;-1.050;2023-06-22T11:11:07;6.32;;;3.95;;
18568;SDS011;14780;48.316;-1.050;2023-06-22T11:13:52;8.95;;;3.83;;
18568;SDS011;14780;48.316;-1.050;2023-06-22T11:16:37;6.97;;;4.20;;
18568;SDS011;14780;48.316;-1.050;2023-06-22T11:19:21;5.13;;;3.60;;
18568;SDS011;14780;48.316;-1.050;2023-06-22T11:22:06;6.13;;;3.80;;
18568;SDS011;14780;48.316;-1.050;2023-06-22T11:24:51;6.25;;;3.90;;
18568;SDS011;14780;48.316;-1.050;2023-06-22T11:27:36;6.00;;;3.90;;
18568;SDS011;14780;48.316;-1.050;2023-06-22T11:30:20;7.63;;;4.03;;
18568;SDS011;14780;48.316;-1.050;2023-06-22T11:33:05;6.55;;;3.80;;
18568;SDS011;14780;48.316;-1.050;2023-06-22T11:35:49;6.13;;;4.23;;
18568;SDS011;14780;48.316;-1.050;2023-06-22T11:38:34;8.27;;;3.92;;
18568;SDS011;14780;48.316;-1.050;2023-06-22T11:41:20;7.20;;;4.10;;
18568;SDS011;14780;48.316;-1.050;2023-06-22T11:44:06;6.63;;;4.03;;
18568;SDS011;14780;48.316;-1.050;2023-06-22T11:46:51;7.37;;;4.27;;
18568;SDS011;14780;48.316;-1.050;2023-06-22T11:49:36;6.93;;;4.28;;
18568;SDS011;14780;48.316;-1.050;2023-06-22T11:52:21;6.07;;;3.63;;
18568;SDS011;14780;48.316;-1.050;2023-06-22T11:55:06;6.65;;;3.90;;
18568;SDS011;14780;48.316;-1.050;2023-06-22T11:57:53;6.05;;;3.63;;
18568;SDS011;14780;48.316;-1.050;2023-06-22T12:00:39;5.80;;;3.90;;
18568;SDS011;14780;48.316;-1.050;2023-06-22T12:03:25;5.93;;;3.95;;
18568;SDS011;14780;48.316;-1.050;2023-06-22T12:06:10;6.43;;;3.83;;
18568;SDS011;14780;48.316;-1.050;2023-06-22T12:08:54;7.53;;;4.60;;
18568;SDS011;14780;48.316;-1.050;2023-06-22T12:11:39;7.35;;;4.15;;
18568;SDS011;14780;48.316;-1.050;2023-06-22T12:14:23;7.63;;;3.95;;
18568;SDS011;14780;48.316;-1.050;2023-06-22T12:17:08;6.97;;;4.03;;
18568;SDS011;14780;48.316;-1.050;2023-06-22T12:19:53;7.90;;;4.20;;
18568;SDS011;14780;48.316;-1.050;2023-06-22T12:22:37;6.22;;;4.10;;
18568;SDS011;14780;48.316;-1.050;2023-06-22T12:25:22;5.70;;;4.10;;
18568;SDS011;14780;48.316;-1.050;2023-06-22T12:28:07;7.07;;;4.40;;
18568;SDS011;14780;48.316;-1.050;2023-06-22T12:30:52;7.15;;;4.35;;
18568;SDS011;14780;48.316;-1.050;2023-06-22T12:33:37;7.22;;;4.30;;
18568;SDS011;14780;48.316;-1.050;2023-06-22T12:36:21;6.43;;;4.33;;
18568;SDS011;14780;48.316;-1.050;2023-06-22T12:39:06;7.18;;;4.18;;
18568;SDS011;14780;48.316;-1.050;2023-06-22T12:41:50;5.93;;;3.80;;
18568;SDS011;14780;48.316;-1.050;2023-06-22T12:44:35;7.40;;;4.13;;
18568;SDS011;14780;48.316;-1.050;2023-06-22T12:47:20;6.75;;;4.22;;
18568;SDS011;14780;48.316;-1.050;2023-06-22T12:50:05;7.07;;;4.10;;
18568;SDS011;14780;48.316;-1.050;2023-06-22T12:52:50;5.97;;;3.92;;
18568;SDS011;14780;48.316;-1.050;2023-06-22T12:55:35;6.43;;;4.10;;
18568;SDS011;14780;48.316;-1.050;2023-06-22T12:58:20;6.65;;;4.22;;
18568;SDS011;14780;48.316;-1.050;2023-06-22T13:01:05;7.35;;;4.35;;
18568;SDS011;14780;48.316;-1.050;2023-06-22T13:03:49;6.23;;;4.03;;
18568;SDS011;14780;48.316;-1.050;2023-06-22T13:06:34;6.93;;;4.13;;
18568;SDS011;14780;48.316;-1.050;2023-06-22T13:09:19;7.30;;;4.23;;
18568;SDS011;14780;48.316;-1.050;2023-06-22T13:12:03;5.65;;;4.07;;
18568;SDS011;14780;48.316;-1.050;2023-06-22T13:14:49;6.63;;;4.10;;
18568;SDS011;14780;48.316;-1.050;2023-06-22T13:17:33;7.45;;;4.18;;
18568;SDS011;14780;48.316;-1.050;2023-06-22T13:20:18;8.98;;;4.45;;
18568;SDS011;14780;48.316;-1.050;2023-06-22T13:23:02;6.68;;;4.13;;
18568;SDS011;14780;48.316;-1.050;2023-06-22T13:25:47;8.07;;;4.50;;
18568;SDS011;14780;48.316;-1.050;2023-06-22T13:28:32;7.60;;;4.33;;
18568;SDS011;14780;48.316;-1.050;2023-06-22T13:31:16;6.00;;;4.22;;
18568;SDS011;14780;48.316;-1.050;2023-06-22T13:34:01;6.65;;;4.53;;
18568;SDS011;14780;48.316;-1.050;2023-06-22T13:36:46;8.85;;;4.53;;
18568;SDS011;14780;48.316;-1.050;2023-06-22T13:39:30;6.95;;;4.18;;
18568;SDS011;14780;48.316;-1.050;2023-06-22T13:42:15;7.20;;;4.10;;
18568;SDS011;14780;48.316;-1.050;2023-06-22T13:44:59;7.45;;;4.10;;
18568;SDS011;14780;48.316;-1.050;2023-06-22T13:47:44;6.28;;;4.25;;
18568;SDS011;14780;48.316;-1.050;2023-06-22T13:50:29;7.88;;;4.18;;
18568;SDS011;14780;48.316;-1.050;2023-06-22T13:53:14;6.30;;;4.20;;
18568;SDS011;14780;48.316;-1.050;2023-06-22T13:55:59;7.55;;;4.40;;
18568;SDS011;14780;48.316;-1.050;2023-06-22T13:58:44;7.07;;;4.40;;
18568;SDS011;14780;48.316;-1.050;2023-06-22T14:01:28;5.88;;;3.72;;
18568;SDS011;14780;48.316;-1.050;2023-06-22T14:04:13;6.07;;;4.13;;
18568;SDS011;14780;48.316;-1.050;2023-06-22T14:06:58;5.70;;;3.70;;
18568;SDS011;14780;48.316;-1.050;2023-06-22T14:09:43;6.45;;;3.90;;
18568;SDS011;14780;48.316;-1.050;2023-06-22T14:12:28;7.10;;;3.80;;
18568;SDS011;14780;48.316;-1.050;2023-06-22T14:15:12;5.55;;;3.63;;
18568;SDS011;14780;48.316;-1.050;2023-06-22T14:17:57;5.65;;;3.53;;
18568;SDS011;14780;48.316;-1.050;2023-06-22T14:20:41;6.13;;;3.45;;
18568;SDS011;14780;48.316;-1.050;2023-06-22T14:23:26;5.60;;;3.23;;
18568;SDS011;14780;48.316;-1.050;2023-06-22T14:26:11;6.57;;;4.00;;
18568;SDS011;14780;48.316;-1.050;2023-06-22T14:28:56;6.10;;;3.50;;
18568;SDS011;14780;48.316;-1.050;2023-06-22T14:31:44;4.53;;;3.25;;
18568;SDS011;14780;48.316;-1.050;2023-06-22T14:34:30;7.15;;;3.58;;
18568;SDS011;14780;48.316;-1.050;2023-06-22T14:37:19;5.50;;;3.47;;
18568;SDS011;14780;48.316;-1.050;2023-06-22T14:40:04;7.05;;;3.20;;
18568;SDS011;14780;48.316;-1.050;2023-06-22T14:42:49;5.55;;;3.45;;
18568;SDS011;14780;48.316;-1.050;2023-06-22T14:45:34;5.93;;;3.38;;
18568;SDS011;14780;48.316;-1.050;2023-06-22T14:48:18;5.28;;;3.17;;
18568;SDS011;14780;48.316;-1.050;2023-06-22T14:51:03;4.93;;;3.40;;
18568;SDS011;14780;48.316;-1.050;2023-06-22T14:53:48;4.18;;;3.13;;
18568;SDS011;14780;48.316;-1.050;2023-06-22T14:56:32;5.13;;;3.40;;
18568;SDS011;14780;48.316;-1.050;2023-06-22T14:59:17;5.22;;;3.20;;
18568;SDS011;14780;48.316;-1.050;2023-06-22T15:02:01;5.57;;;3.40;;
18568;SDS011;14780;48.316;-1.050;2023-06-22T15:04:46;4.80;;;3.10;;
18568;SDS011;14780;48.316;-1.050;2023-06-22T15:07:31;5.45;;;3.00;;
18568;SDS011;14780;48.316;-1.050;2023-06-22T15:10:16;5.03;;;3.50;;
18568;SDS011;14780;48.316;-1.050;2023-06-22T15:13:01;5.10;;;3.35;;
18568;SDS011;14780;48.316;-1.050;2023-06-22T15:15:46;5.32;;;3.22;;
18568;SDS011;14780;48.316;-1.050;2023-06-22T15:18:31;4.95;;;3.00;;
18568;SDS011;14780;48.316;-1.050;2023-06-22T15:21:20;5.45;;;3.15;;
18568;SDS011;14780;48.316;-1.050;2023-06-22T15:24:05;5.10;;;3.37;;
18568;SDS011;14780;48.316;-1.050;2023-06-22T15:26:50;4.43;;;3.13;;
18568;SDS011;14780;48.316;-1.050;2023-06-22T15:29:34;5.25;;;3.10;;
18568;SDS011;14780;48.316;-1.050;2023-06-22T15:32:19;4.82;;;3.40;;
18568;SDS011;14780;48.316;-1.050;2023-06-22T15:35:04;6.03;;;3.05;;
18568;SDS011;14780;48.316;-1.050;2023-06-22T15:37:49;4.57;;;3.30;;
18568;SDS011;14780;48.316;-1.050;2023-06-22T15:40:35;5.50;;;3.20;;
18568;SDS011;14780;48.316;-1.050;2023-06-22T15:43:20;6.85;;;3.13;;
18568;SDS011;14780;48.316;-1.050;2023-06-22T15:46:04;8.55;;;3.28;;
18568;SDS011;14780;48.316;-1.050;2023-06-22T15:48:49;4.97;;;3.40;;
18568;SDS011;14780;48.316;-1.050;2023-06-22T15:51:34;4.35;;;3.10;;
18568;SDS011;14780;48.316;-1.050;2023-06-22T15:54:18;5.25;;;3.10;;
18568;SDS011;14780;48.316;-1.050;2023-06-22T15:57:03;5.00;;;3.33;;
18568;SDS011;14780;48.316;-1.050;2023-06-22T15:59:49;6.10;;;3.63;;
18568;SDS011;14780;48.316;-1.050;2023-06-22T16:02:33;4.80;;;3.10;;
18568;SDS011;14780;48.316;-1.050;2023-06-22T16:05:18;7.20;;;3.30;;
18568;SDS011;14780;48.316;-1.050;2023-06-22T16:08:03;5.27;;;3.30;;
18568;SDS011;14780;48.316;-1.050;2023-06-22T16:10:54;4.57;;;3.03;;
18568;SDS011;14780;48.316;-1.050;2023-06-22T16:13:40;4.30;;;3.10;;
18568;SDS011;14780;48.316;-1.050;2023-06-22T16:16:24;5.60;;;3.20;;
18568;SDS011;14780;48.316;-1.050;2023-06-22T16:19:09;5.68;;;3.20;;
18568;SDS011;14780;48.316;-1.050;2023-06-22T16:21:55;4.63;;;2.92;;
18568;SDS011;14780;48.316;-1.050;2023-06-22T16:24:39;4.90;;;3.17;;
18568;SDS011;14780;48.316;-1.050;2023-06-22T16:27:25;4.05;;;2.90;;